DTTA

Tunis Carthage International Airport

Tunis, Tunisia
METAR DTTA 151930Z 24003KT 200V280 CAVOK 16/09 Q1009 NOSIG
Observed Flight Rules
Dec-15 @ 19:30 UTC (22 minutes ago) Visual Flight Rules
Wind Visibility Clouds
240° at 3 knots 10,000+ meters
  • Clear skies
Temperatures Readings
Current 16°C / 61°F
Dewpoint 9°C / 48°F
Humidity 63%
Altimeter 29.79" Hg
Pressure 1009 hPa
Elevation 4
METAR DTTA 151930Z 24003KT 200V280 CAVOK 16/09 Q1009 NOSIG
Observed Flight Rules
Dec-15 @ 19:30 UTC
(22 minutes ago)
VFR
Wind Visibility
240° at 3 knots 10,000+ meters
Clouds
  • Clear skies
Temperature Dewpoint
16°C / 61°F 9°C / 48°F
Humidity Altimeter Pressure
63% 29.79" Hg 1009 hPa